Time;durP1;ratioP1;P1;durP2;ratioP2;P2;SDS_P1;SDS_P2;PMS_P1;PMS_P2;Temp;Humidity;BMP_temperature;BMP_pressure;BME280_temperature;BME280_humidity;BME280_pressure;Samples;Min_cycle;Max_cycle;Signal;HPM_P1;HPM_P2
2024/03/03 00:02:03;;;;;;;37.33;15.82;;;;;;;-141.50;100.00;63355.56;5024880;28;20124;-80
2024/03/03 00:04:30;;;;;;;41.58;16.90;;;;;;;-141.50;100.00;63355.56;5007126;28;20053;-83
2024/03/03 00:06:57;;;;;;;41.58;17.85;;;;;;;-141.50;100.00;63355.56;4989352;28;20057;-80
2024/03/03 00:09:24;;;;;;;39.20;16.90;;;;;;;-141.50;100.00;63355.56;5005312;28;20062;-82
2024/03/03 00:11:51;;;;;;;40.42;15.63;;;;;;;-141.50;100.00;63355.56;5021774;28;20050;-83
2024/03/03 00:14:21;;;;;;;35.72;16.17;;;;;;;-141.50;100.00;63355.56;5023271;28;20062;-82
2024/03/03 00:16:47;;;;;;;34.95;15.32;;;;;;;-141.50;100.00;63355.56;5004847;28;20064;-80
2024/03/03 00:19:14;;;;;;;38.25;16.80;;;;;;;-141.50;100.00;63355.56;5022744;28;20062;-81
2024/03/03 00:21:42;;;;;;;41.58;16.10;;;;;;;-141.50;100.00;63355.56;5020866;28;20092;-81
2024/03/03 00:24:09;;;;;;;44.83;16.73;;;;;;;-141.50;100.00;63355.56;5017857;28;20144;-82
2024/03/03 00:26:35;;;;;;;35.03;15.65;;;;;;;-141.50;100.00;63355.56;5006932;28;20089;-80
2024/03/03 00:29:04;;;;;;;43.33;17.27;;;;;;;-141.50;100.00;63355.56;5020606;28;20073;-79
2024/03/03 00:31:31;;;;;;;39.45;16.85;;;;;;;-141.50;100.00;63355.56;5022175;28;20046;-82
2024/03/03 00:33:57;;;;;;;39.92;16.17;;;;;;;-141.50;100.00;63355.56;4989446;28;20062;-81
2024/03/03 00:36:24;;;;;;;42.88;17.00;;;;;;;-141.50;100.00;63355.56;5012152;28;20034;-80
2024/03/03 00:38:51;;;;;;;42.33;17.17;;;;;;;-141.50;100.00;63355.56;5019064;28;20054;-83
2024/03/03 00:41:17;;;;;;;39.95;16.50;;;;;;;-141.50;100.00;63355.56;5010445;28;20427;-81
2024/03/03 00:43:44;;;;;;;38.40;16.45;;;;;;;-141.50;100.00;63355.56;5031786;28;20523;-80
2024/03/03 00:46:11;;;;;;;42.97;17.02;;;;;;;-141.50;100.00;63355.56;5022262;28;20068;-82
2024/03/03 00:48:38;;;;;;;44.92;17.45;;;;;;;-141.50;100.00;63355.56;5007602;28;20228;-81
2024/03/03 00:51:05;;;;;;;44.17;17.33;;;;;;;-141.50;100.00;63355.56;4982926;28;20104;-80
2024/03/03 00:53:31;;;;;;;37.50;15.85;;;;;;;-141.50;100.00;63355.56;5006249;28;20050;-80
2024/03/03 00:55:58;;;;;;;42.95;17.60;;;;;;;-141.50;100.00;63355.56;5013581;28;20119;-79
2024/03/03 00:58:25;;;;;;;42.63;17.90;;;;;;;-141.50;100.00;63355.56;5024521;28;20054;-82
2024/03/03 01:00:52;;;;;;;41.78;17.58;;;;;;;-141.50;100.00;63355.56;4999793;28;20085;-80
2024/03/03 01:03:19;;;;;;;40.72;16.73;;;;;;;-141.50;100.00;63355.56;5009758;28;20069;-81
2024/03/03 01:05:46;;;;;;;45.97;17.50;;;;;;;-141.50;100.00;63355.56;5012668;28;20205;-81
2024/03/03 01:08:13;;;;;;;40.22;17.23;;;;;;;-141.50;100.00;63355.56;5025056;28;20405;-80
2024/03/03 01:10:40;;;;;;;43.10;17.33;;;;;;;-141.50;100.00;63355.56;5022854;28;20050;-80
2024/03/03 01:13:06;;;;;;;39.63;16.95;;;;;;;-141.50;100.00;63355.56;5006763;28;20050;-82
2024/03/03 01:15:34;;;;;;;45.03;18.05;;;;;;;-141.50;100.00;63355.56;4995714;28;20113;-80
2024/03/03 01:18:02;;;;;;;44.25;17.95;;;;;;;-141.50;100.00;63355.56;5007476;28;20270;-80
2024/03/03 01:20:28;;;;;;;46.90;18.20;;;;;;;-141.50;100.00;63355.56;5023665;28;20054;-80
2024/03/03 01:22:55;;;;;;;42.83;17.38;;;;;;;-141.50;100.00;63355.56;5010623;28;20054;-81
2024/03/03 01:25:22;;;;;;;45.17;18.52;;;;;;;-141.50;100.00;63355.56;5009680;28;20054;-80
2024/03/03 01:27:49;;;;;;;43.33;17.13;;;;;;;-141.50;100.00;63355.56;5008264;28;20072;-80
2024/03/03 01:30:15;;;;;;;43.78;17.23;;;;;;;-141.50;100.00;63355.56;5006944;28;20054;-80
2024/03/03 01:32:42;;;;;;;42.35;17.77;;;;;;;-141.50;100.00;63355.56;5024411;28;20241;-81
2024/03/03 01:35:09;;;;;;;45.67;18.17;;;;;;;-141.50;100.00;63355.56;5003921;28;20049;-82
2024/03/03 01:37:36;;;;;;;38.58;15.63;;;;;;;-141.50;100.00;63355.56;5020260;28;20080;-79
2024/03/03 01:40:04;;;;;;;49.70;18.05;;;;;;;-141.50;100.00;63355.56;5019904;28;20210;-81
2024/03/03 01:42:34;;;;;;;42.63;16.48;;;;;;;-141.50;100.00;63355.56;5003396;28;20050;-81
2024/03/03 01:45:02;;;;;;;41.70;17.42;;;;;;;-141.50;100.00;63355.56;5015632;28;20059;-80
2024/03/03 01:47:29;;;;;;;43.42;16.75;;;;;;;-141.50;100.00;63355.56;5012046;28;20070;-81
2024/03/03 01:49:59;;;;;;;37.30;16.27;;;;;;;-141.50;100.00;63355.56;5002120;28;20058;-82
2024/03/03 01:52:28;;;;;;;38.97;16.42;;;;;;;-141.50;100.00;63355.56;5001225;28;20050;-79
2024/03/03 01:54:56;;;;;;;39.53;16.90;;;;;;;-141.50;100.00;63355.56;5002171;28;20058;-80
2024/03/03 01:57:23;;;;;;;42.10;15.90;;;;;;;-141.50;100.00;63355.56;4981907;28;20602;-80
2024/03/03 01:59:51;;;;;;;36.50;15.93;;;;;;;-141.50;100.00;63355.56;4993206;28;20054;-80
2024/03/03 02:02:18;;;;;;;42.53;16.60;;;;;;;-141.50;100.00;63355.56;5010432;28;20050;-79
2024/03/03 02:04:46;;;;;;;40.10;15.93;;;;;;;-141.50;100.00;63355.56;4990418;28;20050;-81
2024/03/03 02:07:14;;;;;;;43.60;16.73;;;;;;;-141.50;100.00;63355.56;5000729;28;20137;-78
2024/03/03 02:09:44;;;;;;;36.15;15.43;;;;;;;-141.50;100.00;63355.56;4975653;28;20117;-82
2024/03/03 02:12:11;;;;;;;40.28;16.58;;;;;;;-141.50;100.00;63355.56;5004077;28;20049;-80
2024/03/03 02:14:41;;;;;;;39.85;16.50;;;;;;;-141.50;100.00;63355.56;5002895;28;20054;-81
2024/03/03 02:17:08;;;;;;;43.35;16.77;;;;;;;-141.50;100.00;63355.56;5020116;28;20096;-82
2024/03/03 02:19:38;;;;;;;37.70;16.13;;;;;;;-141.50;100.00;63355.56;4993804;28;20073;-82
2024/03/03 02:22:05;;;;;;;46.53;17.48;;;;;;;-141.50;100.00;63355.56;5012133;28;20100;-81
2024/03/03 02:24:32;;;;;;;44.53;17.27;;;;;;;-141.50;100.00;63355.56;4995706;28;20523;-82
2024/03/03 02:27:00;;;;;;;48.00;17.98;;;;;;;-141.50;100.00;63355.56;4984156;28;20329;-81
2024/03/03 02:29:28;;;;;;;39.70;16.55;;;;;;;-141.50;100.00;63355.56;4987174;28;20133;-78
2024/03/03 02:31:55;;;;;;;39.58;16.35;;;;;;;-141.50;100.00;63355.56;4994582;28;20500;-81
2024/03/03 02:34:22;;;;;;;39.22;16.10;;;;;;;-141.50;100.00;63355.56;4995241;28;20061;-80
2024/03/03 02:36:49;;;;;;;41.00;17.73;;;;;;;-141.50;100.00;63355.56;4995038;28;20078;-81
2024/03/03 02:39:17;;;;;;;42.10;17.50;;;;;;;-141.50;100.00;63355.56;5019360;28;20054;-81
2024/03/03 02:41:43;;;;;;;47.70;18.08;;;;;;;-141.50;100.00;63355.56;4988692;28;20081;-78
2024/03/03 02:44:10;;;;;;;49.10;17.85;;;;;;;-141.50;100.00;63355.56;5020552;28;20041;-82
2024/03/03 02:46:40;;;;;;;44.30;18.88;;;;;;;-141.50;100.00;63355.56;4999341;28;20049;-79
2024/03/03 02:49:07;;;;;;;44.00;17.42;;;;;;;-141.50;100.00;63355.56;5003067;28;20042;-80
2024/03/03 02:51:34;;;;;;;42.67;17.52;;;;;;;-141.50;100.00;63355.56;5010590;28;20073;-79
2024/03/03 02:54:00;;;;;;;46.80;16.92;;;;;;;-141.50;100.00;63355.56;5005162;28;20079;-80
2024/03/03 02:56:29;;;;;;;41.33;17.25;;;;;;;-141.50;100.00;63355.56;5002051;28;20081;-81
2024/03/03 02:58:56;;;;;;;44.13;18.15;;;;;;;-141.50;100.00;63355.56;5021803;28;20058;-82
2024/03/03 03:01:23;;;;;;;45.67;17.27;;;;;;;-141.50;100.00;63355.56;5020396;28;20424;-78
2024/03/03 03:03:50;;;;;;;45.15;17.17;;;;;;;-141.50;100.00;63355.56;5017685;28;20148;-80
2024/03/03 03:06:17;;;;;;;46.97;17.40;;;;;;;-141.50;100.00;63355.56;5007381;28;20057;-81
2024/03/03 03:08:44;;;;;;;42.13;17.77;;;;;;;-141.50;100.00;63355.56;5005572;28;20127;-80
2024/03/03 03:11:16;;;;;;;42.80;17.52;;;;;;;-141.50;100.00;63355.56;5014107;28;20053;-81
2024/03/03 03:13:43;;;;;;;44.13;17.30;;;;;;;-141.50;100.00;63355.56;5016462;28;20084;-80
2024/03/03 03:16:10;;;;;;;46.03;18.80;;;;;;;-141.50;100.00;63355.56;4995253;28;20109;-81
2024/03/03 03:18:37;;;;;;;43.95;18.42;;;;;;;-141.50;100.00;63355.56;5015114;28;20064;-80
2024/03/03 03:21:07;;;;;;;50.35;19.17;;;;;;;-141.50;100.00;63355.56;4997328;28;20128;-81
2024/03/03 03:23:34;;;;;;;46.83;19.60;;;;;;;-141.50;100.00;63355.56;5011228;28;20062;-80
2024/03/03 03:26:01;;;;;;;45.35;18.48;;;;;;;-141.50;100.00;63355.56;4998281;28;20506;-80
2024/03/03 03:28:28;;;;;;;51.88;19.17;;;;;;;-141.50;100.00;63355.56;5015484;28;20057;-81
2024/03/03 03:30:55;;;;;;;49.17;20.20;;;;;;;-141.50;100.00;63355.56;5016297;28;20049;-80
2024/03/03 03:33:22;;;;;;;47.90;19.10;;;;;;;-141.50;100.00;63355.56;5016544;28;20102;-80
2024/03/03 03:35:49;;;;;;;57.97;21.48;;;;;;;-141.50;100.00;63355.56;5006305;28;20054;-81
2024/03/03 03:38:15;;;;;;;53.83;21.02;;;;;;;-141.50;100.00;63355.56;5013551;28;20057;-80
2024/03/03 03:40:42;;;;;;;52.17;21.02;;;;;;;-141.50;100.00;63355.56;4985670;28;20521;-81
2024/03/03 03:43:09;;;;;;;55.83;21.27;;;;;;;-141.50;100.00;63355.56;5021013;28;20111;-80
2024/03/03 03:45:36;;;;;;;55.60;21.67;;;;;;;-141.50;100.00;63355.56;5018173;28;20068;-80
2024/03/03 03:48:03;;;;;;;54.35;21.50;;;;;;;-141.50;100.00;63355.56;5019407;28;20110;-82
2024/03/03 03:50:30;;;;;;;59.45;22.83;;;;;;;-141.50;100.00;63355.56;5002956;28;20049;-81
2024/03/03 03:52:56;;;;;;;59.83;21.65;;;;;;;-141.50;100.00;63355.56;5000121;28;20054;-80
2024/03/03 03:55:23;;;;;;;52.05;22.10;;;;;;;-141.50;100.00;63355.56;4998301;28;20054;-80
2024/03/03 03:57:50;;;;;;;61.65;22.63;;;;;;;-141.50;100.00;63355.56;5024678;28;20058;-82
2024/03/03 04:00:17;;;;;;;55.70;21.58;;;;;;;-141.50;100.00;63355.56;5024672;28;20069;-81
2024/03/03 04:02:44;;;;;;;54.35;21.85;;;;;;;-141.50;100.00;63355.56;5021721;28;20066;-83
2024/03/03 04:05:10;;;;;;;61.13;23.25;;;;;;;-141.50;100.00;63355.56;5007154;28;20053;-80
2024/03/03 04:07:37;;;;;;;56.70;21.70;;;;;;;-141.50;100.00;63355.56;5023782;28;20060;-80
2024/03/03 04:10:08;;;;;;;54.35;22.38;;;;;;;-141.50;100.00;63355.56;5023044;28;20066;-78
2024/03/03 04:12:35;;;;;;;50.47;21.00;;;;;;;-141.50;100.00;63355.56;5023723;28;20057;-81
2024/03/03 04:15:02;;;;;;;47.67;20.33;;;;;;;-141.50;100.00;63355.56;5012107;28;20049;-79
2024/03/03 04:17:28;;;;;;;59.88;22.52;;;;;;;-141.50;100.00;63355.56;5012867;28;20073;-81
2024/03/03 04:19:55;;;;;;;56.28;22.85;;;;;;;-141.50;100.00;63355.56;5017432;28;20054;-78
2024/03/03 04:22:22;;;;;;;50.80;19.98;;;;;;;-141.50;100.00;63355.56;5014082;28;20562;-81
2024/03/03 04:24:49;;;;;;;50.47;21.92;;;;;;;-141.50;100.00;63355.56;5003535;28;20061;-80
2024/03/03 04:27:16;;;;;;;48.30;20.33;;;;;;;-141.50;100.00;63355.56;5002435;28;20056;-80
2024/03/03 04:29:47;;;;;;;55.22;20.50;;;;;;;-141.50;100.00;63355.56;4991176;28;20064;-82
2024/03/03 04:32:14;;;;;;;51.30;20.42;;;;;;;-141.50;100.00;63355.56;5025841;28;20057;-82
2024/03/03 04:34:41;;;;;;;50.42;21.13;;;;;;;-141.50;100.00;63355.56;5023056;28;20065;-81
2024/03/03 04:37:09;;;;;;;50.60;20.27;;;;;;;-141.50;100.00;63355.56;5026249;28;20056;-82
2024/03/03 04:39:36;;;;;;;45.88;19.20;;;;;;;-141.50;100.00;63355.56;5025290;28;20038;-81
2024/03/03 04:42:04;;;;;;;49.67;18.98;;;;;;;-141.50;100.00;63355.56;5005504;28;20037;-80
2024/03/03 04:44:31;;;;;;;47.03;19.02;;;;;;;-141.50;100.00;63355.56;5017327;28;20053;-82
2024/03/03 04:46:58;;;;;;;49.03;18.95;;;;;;;-141.50;100.00;63355.56;5020906;28;20054;-79
2024/03/03 04:49:24;;;;;;;46.08;19.35;;;;;;;-141.50;100.00;63355.56;5020514;28;20056;-80
2024/03/03 04:51:51;;;;;;;49.03;19.25;;;;;;;-141.50;100.00;63355.56;5022019;28;20060;-79
2024/03/03 04:54:18;;;;;;;43.80;18.25;;;;;;;-141.50;100.00;63355.56;5024197;28;20064;-82
2024/03/03 04:56:45;;;;;;;44.80;19.05;;;;;;;-141.50;100.00;63355.56;5018362;28;20078;-80
2024/03/03 04:59:13;;;;;;;45.05;19.08;;;;;;;-141.50;100.00;63355.56;5020547;28;20048;-81
2024/03/03 05:01:41;;;;;;;48.78;20.10;;;;;;;-141.50;100.00;63355.56;5018894;28;20038;-82
2024/03/03 05:04:08;;;;;;;43.75;18.48;;;;;;;-141.50;100.00;63355.56;5019355;28;20052;-79
2024/03/03 05:06:48;;;;;;;57.00;20.20;;;;;;;-141.50;100.00;63355.56;4994427;28;20050;-80
2024/03/03 05:09:15;;;;;;;45.85;18.15;;;;;;;-141.50;100.00;63355.56;5022486;28;20069;-81
2024/03/03 05:11:43;;;;;;;49.97;19.33;;;;;;;-141.50;100.00;63355.56;5011637;28;20582;-81
2024/03/03 05:14:10;;;;;;;46.30;18.55;;;;;;;-141.50;100.00;63355.56;4981655;28;20129;-80
2024/03/03 05:16:37;;;;;;;48.15;18.23;;;;;;;-141.50;100.00;63355.56;4989940;28;20370;-81
2024/03/03 05:19:04;;;;;;;45.53;18.13;;;;;;;-141.50;100.00;63355.56;5012917;28;20046;-80
2024/03/03 05:21:31;;;;;;;48.65;19.55;;;;;;;-141.50;100.00;63355.56;5006247;28;20132;-80
2024/03/03 05:23:58;;;;;;;45.40;19.75;;;;;;;-141.50;100.00;63355.56;5013909;28;20054;-79
2024/03/03 05:26:24;;;;;;;45.35;17.35;;;;;;;-141.50;100.00;63355.56;5014062;28;20050;-80
2024/03/03 05:28:51;;;;;;;49.95;19.05;;;;;;;-141.50;100.00;63355.56;4995835;28;20053;-80
2024/03/03 05:31:18;;;;;;;45.45;19.00;;;;;;;-141.50;100.00;63355.56;4997179;28;20053;-81
2024/03/03 05:33:45;;;;;;;44.15;18.20;;;;;;;-141.50;100.00;63355.56;5012746;28;20058;-79
2024/03/03 05:36:13;;;;;;;47.22;18.27;;;;;;;-141.50;100.00;63355.56;5009991;28;20052;-80
2024/03/03 05:38:40;;;;;;;47.17;19.50;;;;;;;-141.50;100.00;63355.56;5024926;28;20079;-81
2024/03/03 05:41:07;;;;;;;47.58;18.70;;;;;;;-141.50;100.00;63355.56;5022751;28;20046;-80
2024/03/03 05:43:33;;;;;;;40.47;17.63;;;;;;;-141.50;100.00;63355.56;5016086;28;20058;-80
2024/03/03 05:46:00;;;;;;;37.70;17.10;;;;;;;-141.50;100.00;63355.56;4987890;28;20049;-81
2024/03/03 05:48:27;;;;;;;42.88;17.30;;;;;;;-141.50;100.00;63355.56;5016148;28;20057;-80
2024/03/03 05:50:54;;;;;;;40.53;16.80;;;;;;;-141.50;100.00;63355.56;5019773;28;20057;-82
2024/03/03 05:53:21;;;;;;;41.63;17.38;;;;;;;-141.50;100.00;63355.56;5016419;28;20045;-80
2024/03/03 05:55:48;;;;;;;43.40;17.25;;;;;;;-141.50;100.00;63355.56;4983331;28;20054;-81
2024/03/03 05:58:15;;;;;;;41.70;16.52;;;;;;;-141.50;100.00;63355.56;5014013;28;20309;-81
2024/03/03 06:00:42;;;;;;;40.17;17.23;;;;;;;-141.50;100.00;63355.56;4995798;28;20072;-82
2024/03/03 06:03:09;;;;;;;43.15;17.23;;;;;;;-141.50;100.00;63355.56;5011684;28;20038;-79
2024/03/03 06:05:35;;;;;;;39.10;15.43;;;;;;;-141.50;100.00;63355.56;4992517;28;20042;-81
2024/03/03 06:08:03;;;;;;;42.47;16.73;;;;;;;-141.50;100.00;63355.56;5016181;28;20046;-79
2024/03/03 06:10:29;;;;;;;40.78;16.30;;;;;;;-141.50;100.00;63355.56;5007509;28;20053;-80
2024/03/03 06:12:56;;;;;;;39.28;16.38;;;;;;;-141.50;100.00;63355.56;4989917;28;20057;-79
2024/03/03 06:15:23;;;;;;;41.67;16.65;;;;;;;-141.50;100.00;63355.56;4983457;28;20050;-81
2024/03/03 06:17:49;;;;;;;43.83;16.33;;;;;;;-141.50;100.00;63355.56;5007609;28;20112;-79
2024/03/03 06:20:16;;;;;;;42.72;17.23;;;;;;;-141.50;100.00;63355.56;4992442;28;20056;-79
2024/03/03 06:22:43;;;;;;;40.20;16.05;;;;;;;-141.50;100.00;63355.56;4994614;28;20049;-80
2024/03/03 06:25:10;;;;;;;41.05;15.82;;;;;;;-141.50;100.00;63355.56;5013489;28;20049;-82
2024/03/03 06:27:37;;;;;;;42.42;16.95;;;;;;;-141.50;100.00;63355.56;5011940;28;20411;-80
2024/03/03 06:30:05;;;;;;;41.72;16.75;;;;;;;-141.50;100.00;63355.56;5003804;28;20048;-78
2024/03/03 06:32:32;;;;;;;40.95;16.65;;;;;;;-141.50;100.00;63355.56;5003068;28;20046;-81
2024/03/03 06:34:58;;;;;;;43.58;16.65;;;;;;;-141.50;100.00;63355.56;5017035;28;20060;-79
2024/03/03 06:37:26;;;;;;;37.05;15.25;;;;;;;-141.50;100.00;63355.56;4997736;28;20046;-80
2024/03/03 06:39:53;;;;;;;42.83;16.45;;;;;;;-141.50;100.00;63355.56;5019420;28;20074;-78
2024/03/03 06:42:20;;;;;;;38.85;16.33;;;;;;;-141.50;100.00;63355.56;5022438;28;20046;-81
2024/03/03 06:44:46;;;;;;;40.83;17.13;;;;;;;-141.50;100.00;63355.56;4998046;28;20069;-81
2024/03/03 06:47:13;;;;;;;37.90;16.02;;;;;;;-141.50;100.00;63355.56;4999582;28;20105;-79
2024/03/03 06:49:40;;;;;;;39.10;16.15;;;;;;;-141.50;100.00;63355.56;5017297;28;20046;-80
2024/03/03 06:52:06;;;;;;;42.75;16.98;;;;;;;-141.50;100.00;63355.56;5020151;28;20298;-79
2024/03/03 06:54:33;;;;;;;39.92;16.38;;;;;;;-141.50;100.00;63355.56;5013788;28;20033;-80
2024/03/03 06:57:00;;;;;;;38.30;15.55;;;;;;;-141.50;100.00;63355.56;5016984;28;20515;-80
2024/03/03 06:59:27;;;;;;;33.42;14.85;;;;;;;-141.50;100.00;63355.56;5016277;28;20042;-81
2024/03/03 07:01:54;;;;;;;42.33;17.05;;;;;;;-141.50;100.00;63355.56;5017497;28;20614;-79
2024/03/03 07:04:24;;;;;;;40.58;17.02;;;;;;;-141.50;100.00;63355.56;5004525;28;20057;-80
2024/03/03 07:06:52;;;;;;;41.28;16.63;;;;;;;-141.50;100.00;63355.56;5020914;28;20054;-81
2024/03/03 07:09:22;;;;;;;43.47;17.23;;;;;;;-141.50;100.00;63355.56;4997017;28;20053;-81
2024/03/03 07:12:01;;;;;;;40.72;16.67;;;;;;;-141.50;100.00;63355.56;4996722;28;20058;-80
2024/03/03 07:14:27;;;;;;;40.13;16.40;;;;;;;-141.50;100.00;63355.56;4997738;28;20058;-78
2024/03/03 07:16:54;;;;;;;40.78;17.17;;;;;;;-141.50;100.00;63355.56;5019580;28;20053;-80
2024/03/03 07:19:21;;;;;;;42.92;17.80;;;;;;;-141.50;100.00;63355.56;5023778;28;20042;-80
2024/03/03 07:21:48;;;;;;;44.63;17.45;;;;;;;-141.50;100.00;63355.56;5021905;28;20500;-80
2024/03/03 07:24:15;;;;;;;40.95;16.48;;;;;;;-141.50;100.00;63355.56;5003999;28;20076;-81
2024/03/03 07:26:42;;;;;;;42.55;17.50;;;;;;;-141.50;100.00;63355.56;4998894;28;20125;-81
2024/03/03 07:29:09;;;;;;;40.72;17.60;;;;;;;-141.50;100.00;63355.56;4999977;28;20054;-80
2024/03/03 07:31:37;;;;;;;44.15;17.92;;;;;;;-141.50;100.00;63355.56;5000823;28;20042;-81
2024/03/03 07:34:03;;;;;;;45.75;18.55;;;;;;;-141.50;100.00;63355.56;4987202;28;20057;-82
2024/03/03 07:36:33;;;;;;;43.33;17.77;;;;;;;-141.50;100.00;63355.56;5011936;28;20048;-80
2024/03/03 07:39:00;;;;;;;40.35;17.20;;;;;;;-141.50;100.00;63355.56;5013183;28;20594;-80
2024/03/03 07:41:27;;;;;;;42.80;16.63;;;;;;;-141.50;100.00;63355.56;4991698;28;20062;-78
2024/03/03 07:43:53;;;;;;;42.45;17.20;;;;;;;-141.50;100.00;63355.56;4987991;28;20042;-80
2024/03/03 07:46:20;;;;;;;36.22;15.68;;;;;;;-141.50;100.00;63355.56;5018133;28;20053;-80
2024/03/03 07:48:47;;;;;;;37.88;15.77;;;;;;;-141.50;100.00;63355.56;4991040;28;20092;-81
2024/03/03 07:51:14;;;;;;;41.53;16.17;;;;;;;-141.50;100.00;63355.56;5016003;28;20053;-81
2024/03/03 07:53:40;;;;;;;40.47;15.63;;;;;;;-141.50;100.00;63355.56;4998195;28;20319;-81
2024/03/03 07:56:08;;;;;;;36.47;15.27;;;;;;;-141.50;100.00;63355.56;5017839;28;20516;-80
2024/03/03 07:58:37;;;;;;;32.00;14.02;;;;;;;-141.50;100.00;63355.56;5013721;28;20046;-79
2024/03/03 08:01:04;;;;;;;36.65;14.13;;;;;;;-141.50;100.00;63355.56;5016433;28;20061;-82
2024/03/03 08:03:32;;;;;;;31.48;13.52;;;;;;;-141.50;100.00;63355.56;5016778;28;20046;-80
2024/03/03 08:05:59;;;;;;;31.80;14.18;;;;;;;-141.50;100.00;63355.56;4998748;28;20081;-78
2024/03/03 08:08:26;;;;;;;31.98;13.80;;;;;;;-141.50;100.00;63355.56;5013537;28;20046;-79
2024/03/03 08:10:52;;;;;;;30.67;14.07;;;;;;;-141.50;100.00;63355.56;5014159;28;20073;-78
2024/03/03 08:13:19;;;;;;;31.90;12.57;;;;;;;-141.50;100.00;63355.56;4998128;28;20054;-80
2024/03/03 08:15:46;;;;;;;27.48;12.38;;;;;;;-141.50;100.00;63355.56;4998337;28;20099;-79
2024/03/03 08:18:13;;;;;;;29.70;12.25;;;;;;;-141.50;100.00;63355.56;5016035;28;20631;-78
2024/03/03 08:20:40;;;;;;;27.80;11.95;;;;;;;-141.50;100.00;63355.56;4995137;28;20050;-79
2024/03/03 08:23:06;;;;;;;28.02;11.88;;;;;;;-141.50;100.00;63355.56;5022959;28;20058;-78
2024/03/03 08:25:33;;;;;;;24.42;11.50;;;;;;;-141.50;100.00;63355.56;5019348;28;20081;-78
2024/03/03 08:28:05;;;;;;;25.30;11.77;;;;;;;-141.50;100.00;63355.56;5016939;28;20585;-80
2024/03/03 08:30:31;;;;;;;23.13;10.75;;;;;;;-141.50;100.00;63355.56;5015743;28;20173;-82
2024/03/03 08:32:59;;;;;;;24.55;11.25;;;;;;;-141.50;100.00;63355.56;4999043;28;20050;-80
2024/03/03 08:35:26;;;;;;;21.67;10.07;;;;;;;-141.50;100.00;63355.56;5000898;28;20436;-80
2024/03/03 08:37:54;;;;;;;20.23;10.38;;;;;;;-141.50;100.00;63355.56;5016878;28;20053;-80
2024/03/03 08:40:21;;;;;;;23.58;10.45;;;;;;;-141.50;100.00;63355.56;5018836;28;20061;-80
2024/03/03 08:42:48;;;;;;;21.27;10.25;;;;;;;-141.50;100.00;63355.56;5014661;28;20665;-79
2024/03/03 08:45:16;;;;;;;25.02;9.95;;;;;;;-141.50;100.00;63355.56;5014194;28;20057;-80
2024/03/03 08:47:43;;;;;;;19.63;9.95;;;;;;;-141.50;100.00;63355.56;5010441;28;20046;-79
2024/03/03 08:50:10;;;;;;;23.30;10.65;;;;;;;-141.50;100.00;63355.56;4995343;28;20523;-79
2024/03/03 08:52:37;;;;;;;27.05;12.40;;;;;;;-141.50;100.00;63355.56;4992680;28;20054;-78
2024/03/03 08:55:04;;;;;;;24.30;10.63;;;;;;;-141.50;100.00;63355.56;5012809;28;20065;-78
2024/03/03 08:57:31;;;;;;;25.77;10.85;;;;;;;-141.50;100.00;63355.56;5013505;28;20050;-80
2024/03/03 08:59:58;;;;;;;22.67;10.75;;;;;;;-141.50;100.00;63355.56;5005180;28;20053;-78
2024/03/03 09:02:24;;;;;;;23.73;11.10;;;;;;;-141.50;100.00;63355.56;5020632;28;20058;-79
2024/03/03 09:04:51;;;;;;;22.70;10.27;;;;;;;-141.50;100.00;63355.56;4998970;28;20762;-78
2024/03/03 09:07:18;;;;;;;19.58;9.23;;;;;;;-141.50;100.00;63355.56;5014455;28;20622;-77
2024/03/03 09:09:44;;;;;;;23.35;10.20;;;;;;;-141.50;100.00;63355.56;5010861;28;20508;-80
2024/03/03 09:12:14;;;;;;;22.33;9.05;;;;;;;-141.50;100.00;63355.56;5012949;28;20058;-79
2024/03/03 09:14:41;;;;;;;20.15;9.68;;;;;;;-141.50;100.00;63355.56;4993736;28;20065;-77
2024/03/03 09:17:08;;;;;;;20.60;9.68;;;;;;;-141.50;100.00;63355.56;4995657;28;20532;-75
2024/03/03 09:19:35;;;;;;;21.20;9.82;;;;;;;-141.50;100.00;63355.56;5004340;28;20085;-78
2024/03/03 09:22:01;;;;;;;21.23;9.95;;;;;;;-141.50;100.00;63355.56;4996101;28;20042;-78
2024/03/03 09:24:28;;;;;;;18.77;9.40;;;;;;;-141.50;100.00;63355.56;5013910;28;20054;-80
2024/03/03 09:26:55;;;;;;;18.02;9.23;;;;;;;-141.50;100.00;63355.56;4994037;28;20115;-80
2024/03/03 09:29:21;;;;;;;17.40;9.13;;;;;;;-141.50;100.00;63355.56;5007266;28;20058;-79
2024/03/03 09:31:54;;;;;;;23.67;9.80;;;;;;;-141.50;100.00;63355.56;4986797;28;20046;-80
2024/03/03 09:34:20;;;;;;;18.80;8.35;;;;;;;-141.50;100.00;63355.56;5002930;28;20459;-78
2024/03/03 09:36:48;;;;;;;24.42;9.88;;;;;;;-141.50;100.00;63355.56;5009806;28;20057;-81
2024/03/03 09:39:14;;;;;;;23.35;9.88;;;;;;;-141.50;100.00;63355.56;4994996;28;20061;-80
2024/03/03 09:41:43;;;;;;;22.90;10.05;;;;;;;-141.50;100.00;63355.56;5002076;28;20045;-79
2024/03/03 09:44:16;;;;;;;24.50;9.35;;;;;;;-141.50;100.00;63355.56;5016844;28;20540;-77
2024/03/03 09:46:44;;;;;;;19.25;8.57;;;;;;;-141.50;100.00;63355.56;4999505;28;20077;-80
2024/03/03 09:49:18;;;;;;;20.80;9.57;;;;;;;-141.50;100.00;63355.56;5016508;28;20064;-77
2024/03/03 09:51:47;;;;;;;24.08;10.48;;;;;;;-141.50;100.00;63355.56;5013444;28;20508;-78
2024/03/03 09:54:16;;;;;;;23.33;10.35;;;;;;;-141.50;100.00;63355.56;5013539;28;20069;-78
2024/03/03 09:56:45;;;;;;;20.65;9.48;;;;;;;-141.50;100.00;63355.56;5016321;28;20076;-79
2024/03/03 09:59:14;;;;;;;21.30;10.05;;;;;;;-141.50;100.00;63355.56;4993613;28;20072;-79
2024/03/03 10:01:55;;;;;;;23.15;9.93;;;;;;;-141.50;100.00;63355.56;5000543;28;20088;-78
2024/03/03 10:04:27;;;;;;;30.27;11.20;;;;;;;-141.50;100.00;63355.56;5014381;28;20062;-78
2024/03/03 10:06:59;;;;;;;21.77;9.63;;;;;;;-141.50;100.00;63355.56;5007808;28;20054;-80
2024/03/03 10:09:29;;;;;;;19.13;9.00;;;;;;;-141.50;100.00;63355.56;4994114;28;20042;-78
2024/03/03 10:11:58;;;;;;;20.20;9.77;;;;;;;-141.50;100.00;63355.56;5018937;28;20096;-80
2024/03/03 10:14:28;;;;;;;18.33;9.25;;;;;;;-141.50;100.00;63355.56;5023415;28;20058;-77
2024/03/03 10:16:55;;;;;;;21.67;10.32;;;;;;;-141.50;100.00;63355.56;5020404;28;20057;-76
2024/03/03 10:19:21;;;;;;;17.98;9.75;;;;;;;-141.50;100.00;63355.56;5021411;28;20113;-79
2024/03/03 10:21:53;;;;;;;19.45;9.80;;;;;;;-141.50;100.00;63355.56;5023728;28;20054;-78
2024/03/03 10:24:23;;;;;;;18.92;9.55;;;;;;;-141.50;100.00;63355.56;5014527;28;20443;-78
2024/03/03 10:26:54;;;;;;;18.38;9.48;;;;;;;-141.50;100.00;63355.56;5023269;28;20060;-79
2024/03/03 10:29:26;;;;;;;15.50;9.10;;;;;;;-141.50;100.00;63355.56;5021380;28;20109;-78
2024/03/03 10:31:56;;;;;;;18.20;9.40;;;;;;;-141.50;100.00;63355.56;5003157;28;20054;-77
2024/03/03 10:34:24;;;;;;;21.25;10.15;;;;;;;-141.50;100.00;63355.56;5008810;28;20089;-76
2024/03/03 10:37:02;;;;;;;31.10;13.30;;;;;;;-141.50;100.00;63355.56;5021262;28;20053;-77
2024/03/03 10:39:38;;;;;;;20.45;10.18;;;;;;;-141.50;100.00;63355.56;4992909;28;20456;-78
2024/03/03 10:42:09;;;;;;;16.65;8.40;;;;;;;-141.50;100.00;63355.56;5010431;28;20053;-76
2024/03/03 10:44:37;;;;;;;15.32;8.13;;;;;;;-141.50;100.00;63355.56;5019370;28;20049;-79
2024/03/03 10:47:11;;;;;;;17.42;8.20;;;;;;;-141.50;100.00;63355.56;5019910;28;20132;-78
2024/03/03 10:49:39;;;;;;;16.85;8.15;;;;;;;-141.50;100.00;63355.56;5023766;28;20060;-77
2024/03/03 10:52:10;;;;;;;22.77;9.98;;;;;;;-141.50;100.00;63355.56;5023173;28;20050;-77
2024/03/03 10:54:41;;;;;;;17.17;9.13;;;;;;;-141.50;100.00;63355.56;5003455;28;20706;-77
2024/03/03 10:57:12;;;;;;;17.63;9.23;;;;;;;-141.50;100.00;63355.56;5006054;28;20038;-77